sensor_id;sensor_type;location;lat;lon;timestamp;P1;durP1;ratioP1;P2;durP2;ratioP2
41952;SDS011;63613;28.200;112.870;2023-05-13T00:01:59;38.95;;;34.60;;
41952;SDS011;63613;28.200;112.870;2023-05-13T00:04:26;43.35;;;37.83;;
41952;SDS011;63613;28.200;112.870;2023-05-13T00:06:53;43.80;;;38.53;;
41952;SDS011;63613;28.200;112.870;2023-05-13T00:09:20;49.53;;;41.35;;
41952;SDS011;63613;28.200;112.870;2023-05-13T00:11:46;49.30;;;42.63;;
41952;SDS011;63613;28.200;112.870;2023-05-13T00:14:13;46.15;;;41.15;;
41952;SDS011;63613;28.200;112.870;2023-05-13T00:17:00;50.80;;;43.60;;
41952;SDS011;63613;28.200;112.870;2023-05-13T00:19:29;54.20;;;48.28;;
41952;SDS011;63613;28.200;112.870;2023-05-13T00:21:56;50.65;;;45.17;;
41952;SDS011;63613;28.200;112.870;2023-05-13T00:24:23;62.97;;;55.35;;
41952;SDS011;63613;28.200;112.870;2023-05-13T00:26:50;58.22;;;48.90;;
41952;SDS011;63613;28.200;112.870;2023-05-13T00:29:17;55.28;;;46.70;;
41952;SDS011;63613;28.200;112.870;2023-05-13T00:31:43;60.17;;;50.72;;
41952;SDS011;63613;28.200;112.870;2023-05-13T00:34:30;64.10;;;52.55;;
41952;SDS011;63613;28.200;112.870;2023-05-13T00:36:57;58.10;;;50.10;;
41952;SDS011;63613;28.200;112.870;2023-05-13T00:39:25;59.10;;;50.22;;
41952;SDS011;63613;28.200;112.870;2023-05-13T00:41:53;56.88;;;47.70;;
41952;SDS011;63613;28.200;112.870;2023-05-13T00:44:20;61.63;;;51.42;;
41952;SDS011;63613;28.200;112.870;2023-05-13T00:46:47;58.38;;;51.30;;
41952;SDS011;63613;28.200;112.870;2023-05-13T00:49:15;57.60;;;51.40;;
41952;SDS011;63613;28.200;112.870;2023-05-13T00:51:41;57.25;;;49.47;;
41952;SDS011;63613;28.200;112.870;2023-05-13T00:54:09;57.97;;;48.78;;
41952;SDS011;63613;28.200;112.870;2023-05-13T00:56:38;57.40;;;49.63;;
41952;SDS011;63613;28.200;112.870;2023-05-13T00:59:05;60.20;;;51.42;;
41952;SDS011;63613;28.200;112.870;2023-05-13T01:01:44;57.28;;;51.15;;
41952;SDS011;63613;28.200;112.870;2023-05-13T01:13:00;60.28;;;52.50;;
41952;SDS011;63613;28.200;112.870;2023-05-13T01:15:33;59.90;;;53.30;;
41952;SDS011;63613;28.200;112.870;2023-05-13T01:18:06;60.15;;;52.50;;
41952;SDS011;63613;28.200;112.870;2023-05-13T01:20:36;60.45;;;49.63;;
41952;SDS011;63613;28.200;112.870;2023-05-13T01:23:05;57.92;;;51.63;;
41952;SDS011;63613;28.200;112.870;2023-05-13T01:25:33;53.63;;;47.75;;
41952;SDS011;63613;28.200;112.870;2023-05-13T01:28:00;61.67;;;55.00;;
41952;SDS011;63613;28.200;112.870;2023-05-13T01:30:27;56.70;;;49.67;;
41952;SDS011;63613;28.200;112.870;2023-05-13T01:32:54;59.90;;;51.50;;
41952;SDS011;63613;28.200;112.870;2023-05-13T01:35:21;67.20;;;55.85;;
41952;SDS011;63613;28.200;112.870;2023-05-13T01:38:12;60.60;;;50.90;;
41952;SDS011;63613;28.200;112.870;2023-05-13T01:40:40;62.38;;;52.42;;
41952;SDS011;63613;28.200;112.870;2023-05-13T01:43:08;62.13;;;52.20;;
41952;SDS011;63613;28.200;112.870;2023-05-13T01:45:35;63.03;;;52.00;;
41952;SDS011;63613;28.200;112.870;2023-05-13T01:48:02;57.42;;;48.65;;
41952;SDS011;63613;28.200;112.870;2023-05-13T01:50:29;57.28;;;49.28;;
41952;SDS011;63613;28.200;112.870;2023-05-13T01:52:56;60.83;;;51.42;;
41952;SDS011;63613;28.200;112.870;2023-05-13T01:55:23;55.33;;;49.10;;
41952;SDS011;63613;28.200;112.870;2023-05-13T01:57:50;57.67;;;49.08;;
41952;SDS011;63613;28.200;112.870;2023-05-13T02:00:17;61.92;;;53.20;;
41952;SDS011;63613;28.200;112.870;2023-05-13T02:02:44;59.70;;;50.88;;
41952;SDS011;63613;28.200;112.870;2023-05-13T02:05:11;54.85;;;47.97;;
41952;SDS011;63613;28.200;112.870;2023-05-13T02:07:38;57.97;;;50.83;;
41952;SDS011;63613;28.200;112.870;2023-05-13T02:10:05;54.50;;;45.70;;
41952;SDS011;63613;28.200;112.870;2023-05-13T02:12:35;53.25;;;46.45;;
41952;SDS011;63613;28.200;112.870;2023-05-13T02:15:01;55.92;;;49.80;;
41952;SDS011;63613;28.200;112.870;2023-05-13T02:17:28;55.75;;;47.78;;
41952;SDS011;63613;28.200;112.870;2023-05-13T02:19:55;53.90;;;46.30;;
41952;SDS011;63613;28.200;112.870;2023-05-13T02:22:22;51.95;;;43.88;;
41952;SDS011;63613;28.200;112.870;2023-05-13T02:25:09;50.20;;;44.17;;
41952;SDS011;63613;28.200;112.870;2023-05-13T02:27:36;53.75;;;45.55;;
41952;SDS011;63613;28.200;112.870;2023-05-13T02:30:03;51.88;;;44.67;;
41952;SDS011;63613;28.200;112.870;2023-05-13T02:32:30;51.03;;;45.55;;
41952;SDS011;63613;28.200;112.870;2023-05-13T02:34:57;53.40;;;45.83;;
41952;SDS011;63613;28.200;112.870;2023-05-13T02:37:24;50.53;;;45.03;;
41952;SDS011;63613;28.200;112.870;2023-05-13T02:39:51;53.20;;;45.20;;
41952;SDS011;63613;28.200;112.870;2023-05-13T02:42:18;56.72;;;46.10;;
41952;SDS011;63613;28.200;112.870;2023-05-13T02:44:46;47.78;;;40.80;;
41952;SDS011;63613;28.200;112.870;2023-05-13T02:47:13;53.03;;;43.67;;
41952;SDS011;63613;28.200;112.870;2023-05-13T02:49:40;54.30;;;46.35;;
41952;SDS011;63613;28.200;112.870;2023-05-13T02:52:07;49.75;;;44.38;;
41952;SDS011;63613;28.200;112.870;2023-05-13T02:54:34;49.85;;;44.40;;
41952;SDS011;63613;28.200;112.870;2023-05-13T02:57:02;49.50;;;44.03;;
41952;SDS011;63613;28.200;112.870;2023-05-13T02:59:49;56.55;;;48.17;;
41952;SDS011;63613;28.200;112.870;2023-05-13T03:02:16;48.85;;;41.15;;
41952;SDS011;63613;28.200;112.870;2023-05-13T03:04:45;53.50;;;44.33;;
41952;SDS011;63613;28.200;112.870;2023-05-13T03:07:12;46.70;;;40.05;;
41952;SDS011;63613;28.200;112.870;2023-05-13T03:09:59;49.10;;;41.53;;
41952;SDS011;63613;28.200;112.870;2023-05-13T03:12:38;46.10;;;40.60;;
41952;SDS011;63613;28.200;112.870;2023-05-13T03:15:05;50.60;;;42.08;;
41952;SDS011;63613;28.200;112.870;2023-05-13T03:17:32;52.65;;;46.13;;
41952;SDS011;63613;28.200;112.870;2023-05-13T03:20:19;47.67;;;40.28;;
41952;SDS011;63613;28.200;112.870;2023-05-13T03:22:45;49.50;;;41.92;;
41952;SDS011;63613;28.200;112.870;2023-05-13T03:25:12;50.50;;;42.38;;
41952;SDS011;63613;28.200;112.870;2023-05-13T03:27:40;45.88;;;40.92;;
41952;SDS011;63613;28.200;112.870;2023-05-13T03:30:07;44.78;;;39.22;;
41952;SDS011;63613;28.200;112.870;2023-05-13T03:32:34;46.03;;;41.17;;
41952;SDS011;63613;28.200;112.870;2023-05-13T03:35:04;44.53;;;39.85;;
41952;SDS011;63613;28.200;112.870;2023-05-13T03:37:52;44.95;;;39.78;;
41952;SDS011;63613;28.200;112.870;2023-05-13T03:40:18;46.67;;;40.10;;
41952;SDS011;63613;28.200;112.870;2023-05-13T03:42:45;45.60;;;38.47;;
41952;SDS011;63613;28.200;112.870;2023-05-13T03:45:12;42.92;;;38.38;;
41952;SDS011;63613;28.200;112.870;2023-05-13T03:47:39;44.30;;;38.35;;
41952;SDS011;63613;28.200;112.870;2023-05-13T03:50:06;42.90;;;36.78;;
41952;SDS011;63613;28.200;112.870;2023-05-13T03:52:34;43.80;;;37.10;;
41952;SDS011;63613;28.200;112.870;2023-05-13T03:55:00;43.67;;;38.10;;
41952;SDS011;63613;28.200;112.870;2023-05-13T03:57:27;44.30;;;35.85;;
41952;SDS011;63613;28.200;112.870;2023-05-13T03:59:54;40.60;;;35.35;;
41952;SDS011;63613;28.200;112.870;2023-05-13T04:02:22;45.72;;;36.85;;
41952;SDS011;63613;28.200;112.870;2023-05-13T04:04:49;43.17;;;34.85;;
41952;SDS011;63613;28.200;112.870;2023-05-13T04:07:16;38.95;;;34.78;;
41952;SDS011;63613;28.200;112.870;2023-05-13T04:09:42;40.17;;;33.33;;
41952;SDS011;63613;28.200;112.870;2023-05-13T04:12:09;38.40;;;34.10;;
41952;SDS011;63613;28.200;112.870;2023-05-13T04:14:36;39.72;;;34.70;;
41952;SDS011;63613;28.200;112.870;2023-05-13T04:17:04;43.60;;;36.15;;
41952;SDS011;63613;28.200;112.870;2023-05-13T04:19:33;38.70;;;34.58;;
41952;SDS011;63613;28.200;112.870;2023-05-13T04:22:00;42.97;;;33.28;;
41952;SDS011;63613;28.200;112.870;2023-05-13T04:24:27;37.60;;;33.47;;
41952;SDS011;63613;28.200;112.870;2023-05-13T04:26:56;41.30;;;33.95;;
41952;SDS011;63613;28.200;112.870;2023-05-13T04:29:26;36.05;;;32.13;;
41952;SDS011;63613;28.200;112.870;2023-05-13T04:31:53;37.97;;;32.47;;
41952;SDS011;63613;28.200;112.870;2023-05-13T04:34:20;40.35;;;34.42;;
41952;SDS011;63613;28.200;112.870;2023-05-13T04:36:47;40.25;;;33.30;;
41952;SDS011;63613;28.200;112.870;2023-05-13T04:39:14;40.33;;;34.22;;
41952;SDS011;63613;28.200;112.870;2023-05-13T04:41:40;37.20;;;33.22;;
41952;SDS011;63613;28.200;112.870;2023-05-13T04:44:07;37.55;;;31.20;;
41952;SDS011;63613;28.200;112.870;2023-05-13T04:46:34;35.97;;;32.08;;
41952;SDS011;63613;28.200;112.870;2023-05-13T04:49:04;40.63;;;33.05;;
41952;SDS011;63613;28.200;112.870;2023-05-13T04:51:32;37.83;;;33.17;;
41952;SDS011;63613;28.200;112.870;2023-05-13T04:53:59;41.63;;;30.35;;
41952;SDS011;63613;28.200;112.870;2023-05-13T04:56:25;35.88;;;31.52;;
41952;SDS011;63613;28.200;112.870;2023-05-13T04:58:52;37.90;;;31.02;;
41952;SDS011;63613;28.200;112.870;2023-05-13T05:01:39;37.47;;;31.55;;
41952;SDS011;63613;28.200;112.870;2023-05-13T05:04:06;33.92;;;30.20;;
41952;SDS011;63613;28.200;112.870;2023-05-13T05:06:33;39.45;;;31.67;;
41952;SDS011;63613;28.200;112.870;2023-05-13T05:08:59;36.65;;;31.60;;
41952;SDS011;63613;28.200;112.870;2023-05-13T05:11:26;36.72;;;32.72;;
41952;SDS011;63613;28.200;112.870;2023-05-13T05:13:53;38.97;;;33.58;;
41952;SDS011;63613;28.200;112.870;2023-05-13T05:16:22;36.55;;;32.42;;
41952;SDS011;63613;28.200;112.870;2023-05-13T05:18:49;34.58;;;29.63;;
41952;SDS011;63613;28.200;112.870;2023-05-13T05:21:16;37.33;;;33.25;;
41952;SDS011;63613;28.200;112.870;2023-05-13T05:23:43;36.67;;;30.40;;
41952;SDS011;63613;28.200;112.870;2023-05-13T05:26:10;34.17;;;29.95;;
41952;SDS011;63613;28.200;112.870;2023-05-13T05:28:37;36.05;;;29.58;;
41952;SDS011;63613;28.200;112.870;2023-05-13T05:31:07;34.17;;;28.25;;
41952;SDS011;63613;28.200;112.870;2023-05-13T05:33:35;37.25;;;30.08;;
41952;SDS011;63613;28.200;112.870;2023-05-13T05:36:04;33.00;;;29.60;;
41952;SDS011;63613;28.200;112.870;2023-05-13T05:38:31;34.22;;;29.63;;
41952;SDS011;63613;28.200;112.870;2023-05-13T05:40:58;34.55;;;29.00;;
41952;SDS011;63613;28.200;112.870;2023-05-13T05:43:24;32.58;;;29.10;;
41952;SDS011;63613;28.200;112.870;2023-05-13T05:45:52;31.27;;;27.90;;
41952;SDS011;63613;28.200;112.870;2023-05-13T05:48:39;35.55;;;31.65;;
41952;SDS011;63613;28.200;112.870;2023-05-13T05:51:06;33.70;;;29.10;;
41952;SDS011;63613;28.200;112.870;2023-05-13T05:53:33;33.40;;;28.88;;
41952;SDS011;63613;28.200;112.870;2023-05-13T05:56:05;35.83;;;31.73;;
41952;SDS011;63613;28.200;112.870;2023-05-13T05:58:32;36.28;;;30.70;;
41952;SDS011;63613;28.200;112.870;2023-05-13T06:01:02;36.90;;;29.65;;
41952;SDS011;63613;28.200;112.870;2023-05-13T06:03:30;32.65;;;29.13;;
41952;SDS011;63613;28.200;112.870;2023-05-13T06:05:58;32.97;;;29.42;;
41952;SDS011;63613;28.200;112.870;2023-05-13T06:08:26;33.00;;;27.75;;
41952;SDS011;63613;28.200;112.870;2023-05-13T06:10:56;30.65;;;27.42;;
41952;SDS011;63613;28.200;112.870;2023-05-13T06:13:24;30.33;;;26.70;;
41952;SDS011;63613;28.200;112.870;2023-05-13T06:15:51;31.80;;;28.23;;
41952;SDS011;63613;28.200;112.870;2023-05-13T06:18:18;31.15;;;27.85;;
41952;SDS011;63613;28.200;112.870;2023-05-13T06:20:45;28.50;;;25.40;;
41952;SDS011;63613;28.200;112.870;2023-05-13T06:23:13;29.95;;;26.75;;
41952;SDS011;63613;28.200;112.870;2023-05-13T06:26:00;28.10;;;25.20;;
41952;SDS011;63613;28.200;112.870;2023-05-13T06:28:27;26.73;;;23.92;;
41952;SDS011;63613;28.200;112.870;2023-05-13T06:30:54;30.25;;;27.10;;
41952;SDS011;63613;28.200;112.870;2023-05-13T06:33:44;27.13;;;24.27;;
41952;SDS011;63613;28.200;112.870;2023-05-13T06:36:32;28.05;;;24.63;;
41952;SDS011;63613;28.200;112.870;2023-05-13T06:38:59;27.23;;;24.45;;
41952;SDS011;63613;28.200;112.870;2023-05-13T06:41:26;27.55;;;24.55;;
41952;SDS011;63613;28.200;112.870;2023-05-13T06:43:54;26.88;;;24.08;;
41952;SDS011;63613;28.200;112.870;2023-05-13T06:46:21;27.00;;;24.25;;
41952;SDS011;63613;28.200;112.870;2023-05-13T06:48:48;24.95;;;22.40;;
41952;SDS011;63613;28.200;112.870;2023-05-13T06:51:16;24.70;;;22.05;;
41952;SDS011;63613;28.200;112.870;2023-05-13T06:53:46;24.13;;;21.52;;
41952;SDS011;63613;28.200;112.870;2023-05-13T06:56:15;25.55;;;22.88;;
41952;SDS011;63613;28.200;112.870;2023-05-13T06:58:42;26.88;;;24.08;;
41952;SDS011;63613;28.200;112.870;2023-05-13T07:01:29;26.08;;;22.75;;
41952;SDS011;63613;28.200;112.870;2023-05-13T07:03:58;25.63;;;22.50;;
41952;SDS011;63613;28.200;112.870;2023-05-13T07:06:25;24.63;;;22.00;;
41952;SDS011;63613;28.200;112.870;2023-05-13T07:08:52;25.17;;;22.35;;
41952;SDS011;63613;28.200;112.870;2023-05-13T07:11:25;24.55;;;22.00;;
41952;SDS011;63613;28.200;112.870;2023-05-13T07:13:53;26.58;;;23.98;;
41952;SDS011;63613;28.200;112.870;2023-05-13T07:16:20;24.10;;;21.73;;
41952;SDS011;63613;28.200;112.870;2023-05-13T07:18:47;25.33;;;22.52;;
41952;SDS011;63613;28.200;112.870;2023-05-13T07:21:13;25.17;;;22.55;;
41952;SDS011;63613;28.200;112.870;2023-05-13T07:23:41;25.85;;;23.15;;
41952;SDS011;63613;28.200;112.870;2023-05-13T07:26:07;28.05;;;23.40;;
41952;SDS011;63613;28.200;112.870;2023-05-13T07:28:36;27.38;;;24.40;;
41952;SDS011;63613;28.200;112.870;2023-05-13T07:31:05;24.42;;;21.60;;
41952;SDS011;63613;28.200;112.870;2023-05-13T07:33:32;24.40;;;22.08;;
41952;SDS011;63613;28.200;112.870;2023-05-13T07:36:00;24.95;;;22.38;;
41952;SDS011;63613;28.200;112.870;2023-05-13T07:38:29;24.70;;;22.30;;
41952;SDS011;63613;28.200;112.870;2023-05-13T07:40:56;25.30;;;22.67;;
41952;SDS011;63613;28.200;112.870;2023-05-13T07:43:23;24.52;;;21.40;;
41952;SDS011;63613;28.200;112.870;2023-05-13T07:45:52;23.55;;;21.08;;
41952;SDS011;63613;28.200;112.870;2023-05-13T07:48:19;23.17;;;20.70;;
41952;SDS011;63613;28.200;112.870;2023-05-13T07:50:46;24.23;;;21.73;;
41952;SDS011;63613;28.200;112.870;2023-05-13T07:53:14;23.98;;;21.42;;
41952;SDS011;63613;28.200;112.870;2023-05-13T07:55:42;22.58;;;20.17;;
41952;SDS011;63613;28.200;112.870;2023-05-13T07:58:08;24.77;;;22.17;;
41952;SDS011;63613;28.200;112.870;2023-05-13T08:00:37;23.30;;;20.25;;
41952;SDS011;63613;28.200;112.870;2023-05-13T08:03:04;24.17;;;20.52;;
41952;SDS011;63613;28.200;112.870;2023-05-13T08:05:50;24.35;;;21.80;;
41952;SDS011;63613;28.200;112.870;2023-05-13T08:08:18;24.75;;;20.95;;
41952;SDS011;63613;28.200;112.870;2023-05-13T08:10:46;23.27;;;20.77;;
41952;SDS011;63613;28.200;112.870;2023-05-13T08:13:13;22.23;;;20.13;;
41952;SDS011;63613;28.200;112.870;2023-05-13T08:15:42;23.48;;;20.77;;
41952;SDS011;63613;28.200;112.870;2023-05-13T08:18:12;23.92;;;21.38;;
41952;SDS011;63613;28.200;112.870;2023-05-13T08:20:39;24.50;;;21.40;;
41952;SDS011;63613;28.200;112.870;2023-05-13T08:23:05;25.40;;;22.50;;
41952;SDS011;63613;28.200;112.870;2023-05-13T08:25:33;24.02;;;21.05;;
41952;SDS011;63613;28.200;112.870;2023-05-13T08:28:01;24.73;;;22.15;;
41952;SDS011;63613;28.200;112.870;2023-05-13T08:30:30;26.17;;;20.85;;
41952;SDS011;63613;28.200;112.870;2023-05-13T08:32:57;23.95;;;20.05;;
41952;SDS011;63613;28.200;112.870;2023-05-13T08:35:24;24.27;;;21.83;;
41952;SDS011;63613;28.200;112.870;2023-05-13T08:38:12;23.98;;;20.60;;
41952;SDS011;63613;28.200;112.870;2023-05-13T08:40:40;23.98;;;21.48;;
41952;SDS011;63613;28.200;112.870;2023-05-13T08:43:07;23.75;;;20.60;;
41952;SDS011;63613;28.200;112.870;2023-05-13T08:45:36;27.23;;;21.40;;
41952;SDS011;63613;28.200;112.870;2023-05-13T08:48:04;23.02;;;20.05;;
41952;SDS011;63613;28.200;112.870;2023-05-13T08:50:52;24.17;;;21.77;;
41952;SDS011;63613;28.200;112.870;2023-05-13T08:53:19;23.08;;;20.60;;
41952;SDS011;63613;28.200;112.870;2023-05-13T08:55:47;21.63;;;19.35;;
41952;SDS011;63613;28.200;112.870;2023-05-13T08:58:14;25.27;;;20.17;;
41952;SDS011;63613;28.200;112.870;2023-05-13T09:00:41;22.65;;;20.35;;
41952;SDS011;63613;28.200;112.870;2023-05-13T09:03:08;21.38;;;19.08;;
41952;SDS011;63613;28.200;112.870;2023-05-13T09:05:36;25.08;;;20.80;;
41952;SDS011;63613;28.200;112.870;2023-05-13T09:08:07;21.98;;;19.67;;
41952;SDS011;63613;28.200;112.870;2023-05-13T09:10:34;23.05;;;19.95;;
41952;SDS011;63613;28.200;112.870;2023-05-13T09:13:02;22.63;;;19.92;;
41952;SDS011;63613;28.200;112.870;2023-05-13T09:15:30;23.23;;;20.83;;
41952;SDS011;63613;28.200;112.870;2023-05-13T09:18:00;23.73;;;20.42;;
41952;SDS011;63613;28.200;112.870;2023-05-13T09:20:30;21.38;;;19.10;;
41952;SDS011;63613;28.200;112.870;2023-05-13T09:23:10;23.55;;;19.02;;
41952;SDS011;63613;28.200;112.870;2023-05-13T09:25:41;20.38;;;18.27;;
41952;SDS011;63613;28.200;112.870;2023-05-13T09:28:12;20.80;;;18.70;;
41952;SDS011;63613;28.200;112.870;2023-05-13T09:30:43;21.42;;;19.23;;
41952;SDS011;63613;28.200;112.870;2023-05-13T09:33:21;22.67;;;20.30;;
41952;SDS011;63613;28.200;112.870;2023-05-13T09:35:55;22.85;;;20.52;;
41952;SDS011;63613;28.200;112.870;2023-05-13T09:38:25;22.45;;;20.00;;
41952;SDS011;63613;28.200;112.870;2023-05-13T09:40:57;22.08;;;19.77;;
41952;SDS011;63613;28.200;112.870;2023-05-13T09:43:30;22.90;;;19.63;;
41952;SDS011;63613;28.200;112.870;2023-05-13T09:46:01;23.90;;;21.15;;
41952;SDS011;63613;28.200;112.870;2023-05-13T09:48:32;23.30;;;20.13;;
41952;SDS011;63613;28.200;112.870;2023-05-13T09:51:24;25.08;;;20.77;;
41952;SDS011;63613;28.200;112.870;2023-05-13T09:53:52;23.30;;;20.67;;
41952;SDS011;63613;28.200;112.870;2023-05-13T09:56:21;23.17;;;19.73;;
41952;SDS011;63613;28.200;112.870;2023-05-13T09:58:51;22.45;;;20.05;;
41952;SDS011;63613;28.200;112.870;2023-05-13T10:01:19;23.08;;;20.23;;
41952;SDS011;63613;28.200;112.870;2023-05-13T10:03:49;24.25;;;21.27;;
41952;SDS011;63613;28.200;112.870;2023-05-13T10:06:17;24.92;;;20.25;;
41952;SDS011;63613;28.200;112.870;2023-05-13T10:08:46;26.30;;;20.33;;
41952;SDS011;63613;28.200;112.870;2023-05-13T10:11:16;23.77;;;20.20;;
41952;SDS011;63613;28.200;112.870;2023-05-13T10:13:48;23.23;;;20.73;;
41952;SDS011;63613;28.200;112.870;2023-05-13T10:16:21;25.92;;;21.33;;
41952;SDS011;63613;28.200;112.870;2023-05-13T10:18:50;28.45;;;23.00;;
41952;SDS011;63613;28.200;112.870;2023-05-13T10:21:17;28.05;;;21.75;;
41952;SDS011;63613;28.200;112.870;2023-05-13T10:23:48;27.48;;;22.42;;
41952;SDS011;63613;28.200;112.870;2023-05-13T10:26:20;24.63;;;21.75;;
41952;SDS011;63613;28.200;112.870;2023-05-13T10:28:50;25.67;;;21.23;;
41952;SDS011;63613;28.200;112.870;2023-05-13T10:31:39;24.98;;;20.70;;
41952;SDS011;63613;28.200;112.870;2023-05-13T10:34:09;25.80;;;21.00;;
41952;SDS011;63613;28.200;112.870;2023-05-13T10:39:16;27.77;;;22.30;;
41952;SDS011;63613;28.200;112.870;2023-05-13T10:42:08;23.55;;;20.75;;
41952;SDS011;63613;28.200;112.870;2023-05-13T10:45:13;25.50;;;21.85;;
41952;SDS011;63613;28.200;112.870;2023-05-13T10:47:42;24.88;;;21.00;;
41952;SDS011;63613;28.200;112.870;2023-05-13T10:50:22;24.42;;;21.55;;
41952;SDS011;63613;28.200;112.870;2023-05-13T10:52:54;27.00;;;20.85;;
41952;SDS011;63613;28.200;112.870;2023-05-13T10:58:10;23.80;;;21.00;;
41952;SDS011;63613;28.200;112.870;2023-05-13T11:00:39;23.70;;;21.15;;
41952;SDS011;63613;28.200;112.870;2023-05-13T11:03:12;25.70;;;19.95;;
41952;SDS011;63613;28.200;112.870;2023-05-13T11:05:43;24.40;;;21.77;;
41952;SDS011;63613;28.200;112.870;2023-05-13T11:08:39;24.50;;;20.88;;
41952;SDS011;63613;28.200;112.870;2023-05-13T11:11:16;25.92;;;20.48;;
41952;SDS011;63613;28.200;112.870;2023-05-13T11:13:43;25.13;;;21.30;;
41952;SDS011;63613;28.200;112.870;2023-05-13T11:16:12;26.67;;;21.70;;
41952;SDS011;63613;28.200;112.870;2023-05-13T11:18:39;26.73;;;21.00;;
41952;SDS011;63613;28.200;112.870;2023-05-13T11:21:07;27.35;;;22.15;;
41952;SDS011;63613;28.200;112.870;2023-05-13T11:23:49;27.98;;;22.38;;
41952;SDS011;63613;28.200;112.870;2023-05-13T11:26:16;26.58;;;21.20;;
41952;SDS011;63613;28.200;112.870;2023-05-13T11:28:56;26.55;;;22.08;;
41952;SDS011;63613;28.200;112.870;2023-05-13T11:31:26;24.55;;;21.67;;
41952;SDS011;63613;28.200;112.870;2023-05-13T11:34:07;27.73;;;22.95;;
41952;SDS011;63613;28.200;112.870;2023-05-13T11:36:36;24.65;;;22.13;;
41952;SDS011;63613;28.200;112.870;2023-05-13T11:39:05;23.80;;;21.20;;
41952;SDS011;63613;28.200;112.870;2023-05-13T11:41:36;23.83;;;21.23;;
41952;SDS011;63613;28.200;112.870;2023-05-13T11:44:05;27.98;;;22.08;;
41952;SDS011;63613;28.200;112.870;2023-05-13T11:46:33;28.25;;;22.70;;
41952;SDS011;63613;28.200;112.870;2023-05-13T11:49:00;26.10;;;22.02;;
41952;SDS011;63613;28.200;112.870;2023-05-13T11:51:27;25.27;;;22.17;;
41952;SDS011;63613;28.200;112.870;2023-05-13T11:54:01;23.92;;;21.33;;
41952;SDS011;63613;28.200;112.870;2023-05-13T11:56:28;28.08;;;23.35;;
41952;SDS011;63613;28.200;112.870;2023-05-13T11:59:10;25.27;;;22.35;;
41952;SDS011;63613;28.200;112.870;2023-05-13T12:01:41;23.70;;;21.13;;
41952;SDS011;63613;28.200;112.870;2023-05-13T12:04:08;26.48;;;23.23;;
41952;SDS011;63613;28.200;112.870;2023-05-13T12:06:44;24.95;;;21.92;;
41952;SDS011;63613;28.200;112.870;2023-05-13T12:09:11;26.38;;;22.38;;
41952;SDS011;63613;28.200;112.870;2023-05-13T12:11:40;25.27;;;22.67;;
41952;SDS011;63613;28.200;112.870;2023-05-13T12:14:07;24.92;;;22.27;;
41952;SDS011;63613;28.200;112.870;2023-05-13T12:16:34;28.38;;;23.15;;
41952;SDS011;63613;28.200;112.870;2023-05-13T12:19:04;24.55;;;21.95;;
41952;SDS011;63613;28.200;112.870;2023-05-13T12:21:34;26.48;;;23.67;;
41952;SDS011;63613;28.200;112.870;2023-05-13T12:24:01;26.45;;;23.58;;
41952;SDS011;63613;28.200;112.870;2023-05-13T12:26:42;24.25;;;21.65;;
41952;SDS011;63613;28.200;112.870;2023-05-13T12:29:12;27.52;;;24.33;;
41952;SDS011;63613;28.200;112.870;2023-05-13T12:31:42;27.33;;;23.23;;
41952;SDS011;63613;28.200;112.870;2023-05-13T12:34:32;26.90;;;24.00;;
41952;SDS011;63613;28.200;112.870;2023-05-13T12:37:09;28.20;;;22.65;;
41952;SDS011;63613;28.200;112.870;2023-05-13T12:39:37;27.77;;;24.85;;
41952;SDS011;63613;28.200;112.870;2023-05-13T12:42:05;27.30;;;23.98;;
41952;SDS011;63613;28.200;112.870;2023-05-13T12:44:59;25.70;;;23.00;;
41952;SDS011;63613;28.200;112.870;2023-05-13T12:47:26;30.70;;;24.25;;
41952;SDS011;63613;28.200;112.870;2023-05-13T12:49:54;28.98;;;24.35;;
41952;SDS011;63613;28.200;112.870;2023-05-13T12:52:23;26.30;;;23.42;;
41952;SDS011;63613;28.200;112.870;2023-05-13T12:54:52;24.42;;;21.75;;
41952;SDS011;63613;28.200;112.870;2023-05-13T12:57:21;28.05;;;24.33;;
41952;SDS011;63613;28.200;112.870;2023-05-13T12:59:48;26.23;;;23.40;;
41952;SDS011;63613;28.200;112.870;2023-05-13T13:02:18;25.48;;;22.70;;
41952;SDS011;63613;28.200;112.870;2023-05-13T13:04:46;26.15;;;23.42;;
41952;SDS011;63613;28.200;112.870;2023-05-13T13:07:13;28.92;;;25.60;;
41952;SDS011;63613;28.200;112.870;2023-05-13T13:10:06;28.00;;;24.95;;
41952;SDS011;63613;28.200;112.870;2023-05-13T13:12:37;26.60;;;23.15;;
41952;SDS011;63613;28.200;112.870;2023-05-13T13:15:22;25.33;;;22.60;;
41952;SDS011;63613;28.200;112.870;2023-05-13T13:17:49;26.08;;;22.42;;
41952;SDS011;63613;28.200;112.870;2023-05-13T13:20:34;24.17;;;21.67;;
41952;SDS011;63613;28.200;112.870;2023-05-13T13:23:02;24.52;;;21.95;;
41952;SDS011;63613;28.200;112.870;2023-05-13T13:25:30;26.15;;;22.98;;
41952;SDS011;63613;28.200;112.870;2023-05-13T13:27:57;23.20;;;20.85;;
41952;SDS011;63613;28.200;112.870;2023-05-13T13:30:24;24.33;;;21.67;;
41952;SDS011;63613;28.200;112.870;2023-05-13T13:32:54;24.23;;;21.63;;
41952;SDS011;63613;28.200;112.870;2023-05-13T13:35:21;23.65;;;21.25;;
41952;SDS011;63613;28.200;112.870;2023-05-13T13:37:49;23.00;;;20.60;;
41952;SDS011;63613;28.200;112.870;2023-05-13T13:40:16;23.30;;;20.88;;
41952;SDS011;63613;28.200;112.870;2023-05-13T13:42:46;24.67;;;22.25;;
41952;SDS011;63613;28.200;112.870;2023-05-13T13:45:13;24.88;;;22.27;;
41952;SDS011;63613;28.200;112.870;2023-05-13T13:48:00;23.40;;;21.02;;
41952;SDS011;63613;28.200;112.870;2023-05-13T13:50:27;25.98;;;22.98;;
41952;SDS011;63613;28.200;112.870;2023-05-13T13:52:56;24.20;;;21.65;;
41952;SDS011;63613;28.200;112.870;2023-05-13T13:55:28;25.02;;;22.35;;
41952;SDS011;63613;28.200;112.870;2023-05-13T13:57:56;24.27;;;21.90;;
41952;SDS011;63613;28.200;112.870;2023-05-13T14:00:23;25.55;;;21.42;;
41952;SDS011;63613;28.200;112.870;2023-05-13T14:03:13;23.95;;;21.27;;
41952;SDS011;63613;28.200;112.870;2023-05-13T14:05:40;24.27;;;21.70;;
41952;SDS011;63613;28.200;112.870;2023-05-13T14:08:08;25.02;;;22.42;;
41952;SDS011;63613;28.200;112.870;2023-05-13T14:10:36;24.65;;;22.15;;
41952;SDS011;63613;28.200;112.870;2023-05-13T14:13:06;24.48;;;21.95;;
41952;SDS011;63613;28.200;112.870;2023-05-13T14:15:33;25.08;;;22.48;;
41952;SDS011;63613;28.200;112.870;2023-05-13T14:18:05;24.40;;;21.90;;
41952;SDS011;63613;28.200;112.870;2023-05-13T14:20:32;23.38;;;20.88;;
41952;SDS011;63613;28.200;112.870;2023-05-13T14:23:03;24.40;;;21.80;;
41952;SDS011;63613;28.200;112.870;2023-05-13T14:25:52;22.30;;;20.00;;
41952;SDS011;63613;28.200;112.870;2023-05-13T14:28:19;24.52;;;21.60;;